createdAt,value
2017-06-04T07:26:29.538Z,4.50
2017-06-04T07:28:59.001Z,3.80
2017-06-04T08:10:51.286Z,5.12
2017-06-04T08:15:46.872Z,4.78
2017-06-04T08:18:15.697Z,4.68
2017-06-04T08:23:12.069Z,4.72
2017-06-04T08:47:49.607Z,6.62
2017-06-04T08:50:17.652Z,5.60
2017-06-04T08:55:14.034Z,4.93
2017-06-04T08:57:42.090Z,5.85
2017-06-04T09:12:27.863Z,5.70
2017-06-04T09:14:55.918Z,5.40
2017-06-04T09:19:51.589Z,5.70
2017-06-04T09:24:47.789Z,4.87
2017-06-04T09:27:15.837Z,5.65
2017-06-04T09:29:44.736Z,5.75
2017-06-04T09:32:12.786Z,4.95
2017-06-04T09:34:40.877Z,5.15
2017-06-04T09:37:08.962Z,5.12
2017-06-04T09:39:37.074Z,5.43
2017-06-04T09:42:05.191Z,5.37
2017-06-04T09:44:33.233Z,6.10
2017-06-04T09:47:01.294Z,5.55
2017-06-04T09:49:29.429Z,6.28
2017-06-04T09:51:57.492Z,6.22
2017-06-04T09:54:25.545Z,5.87
2017-06-04T09:56:54.404Z,5.53
2017-06-04T09:59:22.459Z,4.85
2017-06-04T10:01:50.530Z,5.15
2017-06-04T10:04:18.594Z,6.68
2017-06-04T10:06:46.658Z,5.95
2017-06-04T10:09:14.760Z,5.37
2017-06-04T10:11:42.856Z,5.70
2017-06-04T10:14:10.936Z,5.40
2017-06-04T10:16:39.850Z,5.05
2017-06-04T10:19:08.258Z,4.82
2017-06-04T10:21:36.314Z,5.70
2017-06-04T10:24:04.374Z,5.78
2017-06-04T10:26:32.842Z,5.82
2017-06-04T10:29:00.874Z,5.15
2017-06-04T10:31:28.929Z,5.30
2017-06-04T10:33:57.006Z,5.00
2017-06-04T10:36:25.073Z,4.00
2017-06-04T10:38:53.152Z,4.40
2017-06-04T10:41:21.213Z,4.70
2017-06-04T10:43:49.269Z,3.75
2017-06-04T10:46:18.259Z,3.15
2017-06-04T10:48:46.319Z,3.20
2017-06-04T10:51:14.863Z,3.10
2017-06-04T10:53:42.926Z,2.97
2017-06-04T10:56:11.003Z,3.50
2017-06-04T10:58:39.086Z,3.58
2017-06-04T11:01:07.162Z,3.40
2017-06-04T11:03:35.226Z,2.67
2017-06-04T11:06:03.303Z,2.80
2017-06-04T11:08:31.358Z,2.60
2017-06-04T11:10:59.418Z,2.58
2017-06-04T11:13:28.298Z,2.97
2017-06-04T11:15:57.126Z,2.87
2017-06-04T11:18:25.188Z,2.22
2017-06-04T11:20:53.290Z,2.03
2017-06-04T11:23:21.350Z,2.40
2017-06-04T11:25:49.461Z,2.22
2017-06-04T11:28:17.529Z,1.90
2017-06-04T11:30:45.582Z,2.42
2017-06-04T11:33:14.442Z,1.90
2017-06-04T11:35:42.502Z,2.40
2017-06-04T11:38:10.558Z,2.25
2017-06-04T11:40:38.639Z,2.08
2017-06-04T11:43:06.717Z,2.10
2017-06-04T11:45:34.780Z,2.50
2017-06-04T11:48:02.905Z,1.95
2017-06-04T11:50:31.726Z,2.25
2017-06-04T11:52:59.778Z,2.12
2017-06-04T11:55:28.189Z,2.40
2017-06-04T11:57:56.250Z,2.20
2017-06-04T12:00:24.306Z,2.40
2017-06-04T12:02:52.556Z,2.08
2017-06-04T12:05:20.610Z,2.20
2017-06-04T12:07:48.666Z,2.33
2017-06-04T12:10:16.953Z,2.40
2017-06-04T12:12:45.032Z,2.08
2017-06-04T12:15:13.110Z,2.40
2017-06-04T12:17:41.210Z,2.50
2017-06-04T12:20:09.266Z,2.15
2017-06-04T12:22:38.106Z,2.50
2017-06-04T12:25:06.163Z,2.33
2017-06-04T12:27:34.242Z,2.10
2017-06-04T12:30:02.377Z,2.55
2017-06-04T12:32:30.411Z,2.40
2017-06-04T12:34:58.478Z,1.80
2017-06-04T12:37:26.538Z,2.30
2017-06-04T12:39:55.258Z,2.35
2017-06-04T12:42:23.322Z,2.25
2017-06-04T12:44:51.421Z,2.30
2017-06-04T12:59:38.549Z,2.00
2017-06-04T13:02:06.614Z,2.80
2017-06-04T13:04:34.739Z,2.47
2017-06-04T13:07:02.779Z,2.10
2017-06-04T13:14:25.946Z,2.58
2017-06-04T13:16:54.790Z,1.70
2017-06-04T13:19:22.922Z,1.80
2017-06-04T13:53:53.679Z,2.10
2017-06-04T13:56:22.518Z,1.52
2017-06-04T13:58:51.165Z,1.70
2017-06-04T14:01:19.310Z,1.70
2017-06-04T14:03:48.258Z,1.70
2017-06-04T14:06:16.378Z,2.08
2017-06-04T14:08:44.526Z,1.80
2017-06-04T14:11:12.653Z,2.30
2017-06-04T14:13:40.697Z,1.85
2017-06-04T14:16:09.583Z,2.33
2017-06-04T14:30:56.235Z,2.15
2017-06-04T14:33:24.309Z,2.40
2017-06-04T14:35:52.440Z,2.90
2017-06-04T14:38:20.515Z,2.20
2017-06-04T14:40:48.654Z,2.15
2017-06-04T14:43:17.505Z,2.10
2017-06-04T14:45:46.046Z,2.50
2017-06-04T14:48:15.682Z,2.12
2017-06-04T14:50:43.838Z,2.00
2017-06-04T14:53:11.910Z,1.90
2017-06-04T14:55:39.980Z,2.35
2017-06-04T14:58:08.066Z,2.00
2017-06-04T15:00:36.160Z,2.67
2017-06-04T15:03:04.273Z,2.33
2017-06-04T15:05:33.142Z,2.33
2017-06-04T15:10:31.414Z,2.33
2017-06-04T15:22:49.627Z,2.10
2017-06-04T15:25:17.698Z,2.28
2017-06-04T15:27:45.764Z,1.70
2017-06-04T15:32:41.378Z,1.80
2017-06-04T15:35:09.480Z,2.10
2017-06-04T15:37:37.534Z,2.42
2017-06-04T15:40:06.261Z,2.05
2017-06-04T15:42:35.134Z,1.50
2017-06-04T15:45:03.199Z,1.73
2017-06-04T15:47:31.269Z,1.77
2017-06-04T15:49:59.376Z,1.70
2017-06-04T15:52:27.426Z,1.85
2017-06-04T15:54:55.542Z,1.85
2017-06-04T15:57:23.614Z,1.60
2017-06-04T15:59:51.686Z,1.50
2017-06-04T16:02:19.772Z,2.03
2017-06-04T16:04:47.836Z,1.67
2017-06-04T16:07:15.977Z,1.70
2017-06-04T16:09:44.829Z,1.70
2017-06-04T16:12:12.886Z,1.60
2017-06-04T16:14:40.990Z,1.83
2017-06-04T16:17:09.066Z,1.83
2017-06-04T16:19:37.417Z,1.83
2017-06-04T16:22:05.477Z,1.70
2017-06-04T16:24:33.534Z,1.90
2017-06-04T16:44:17.548Z,1.83
2017-06-04T16:46:45.596Z,1.70
2017-06-04T16:49:13.714Z,2.08
2017-06-04T16:51:42.582Z,1.50
2017-06-04T16:54:10.696Z,1.75
2017-06-04T16:56:39.502Z,1.80
2017-06-04T16:59:07.557Z,2.25
2017-06-04T17:01:35.695Z,1.50
2017-06-04T17:04:03.734Z,1.50
2017-06-04T17:06:31.810Z,1.90
2017-06-04T17:48:24.851Z,1.30
2017-06-04T17:50:52.965Z,1.52
2017-06-04T17:58:17.314Z,1.58
2017-06-04T18:00:45.408Z,2.40
2017-06-04T18:03:13.487Z,2.60
2017-06-04T18:05:41.553Z,2.90
2017-06-04T18:08:10.375Z,3.25
2017-06-04T18:10:38.443Z,2.40
2017-06-04T18:13:07.277Z,2.87
2017-06-04T18:15:35.720Z,3.37
2017-06-04T18:18:04.538Z,2.50
2017-06-04T18:20:32.589Z,2.90
2017-06-04T18:23:00.686Z,2.65
2017-06-04T18:25:28.737Z,2.90
2017-06-04T18:27:56.875Z,2.85
2017-06-04T18:30:24.950Z,2.33
2017-06-04T18:32:53.054Z,2.87
2017-06-04T18:35:21.110Z,2.60
2017-06-04T18:37:49.990Z,2.42
2017-06-04T18:40:18.070Z,2.45
2017-06-04T18:42:46.174Z,2.53
2017-06-04T18:45:14.297Z,2.42
2017-06-04T18:47:42.376Z,2.25
2017-06-04T18:50:10.478Z,2.05
2017-06-04T18:52:39.294Z,1.85
2017-06-04T18:55:07.366Z,1.80
2017-06-04T18:57:35.449Z,1.50
2017-06-04T19:00:03.616Z,2.00
2017-06-04T19:02:32.396Z,2.35
2017-06-04T19:05:00.465Z,2.10
2017-06-04T19:07:28.550Z,1.62
2017-06-04T19:09:56.730Z,1.73
2017-06-04T19:12:24.785Z,1.75
2017-06-04T19:14:52.970Z,1.90
2017-06-04T19:17:21.034Z,2.30
2017-06-04T19:19:49.087Z,1.80
2017-06-04T19:22:17.237Z,1.67
2017-06-04T19:24:46.070Z,1.40
2017-06-04T19:27:14.146Z,1.90
2017-06-04T19:29:42.198Z,1.80
2017-06-04T19:32:10.279Z,1.90
2017-06-04T19:34:38.367Z,2.30
2017-06-04T19:37:06.435Z,2.10
2017-06-04T19:39:34.506Z,1.95
2017-06-04T19:42:02.594Z,2.20
2017-06-04T19:44:30.674Z,1.90
2017-06-04T19:46:58.710Z,2.00
2017-06-04T19:49:26.802Z,2.40
2017-06-04T19:51:54.865Z,2.15
2017-06-04T19:54:23.172Z,2.35
2017-06-04T19:56:51.235Z,1.90
2017-06-04T19:59:19.381Z,1.87
2017-06-04T20:01:47.454Z,2.30
2017-06-04T20:04:15.519Z,2.05
2017-06-04T20:06:43.610Z,1.95
2017-06-04T20:09:11.670Z,2.08
2017-06-04T20:11:39.741Z,1.75
2017-06-04T20:14:07.827Z,1.95
2017-06-04T20:16:35.882Z,2.10
2017-06-04T20:19:03.961Z,1.60
2017-06-04T20:21:32.094Z,1.98
2017-06-04T20:24:00.959Z,2.12
2017-06-04T20:26:29.063Z,1.92
2017-06-04T20:28:57.879Z,2.20
2017-06-04T20:31:26.007Z,2.10
2017-06-04T20:33:54.120Z,2.30
2017-06-04T20:36:22.221Z,1.90
2017-06-04T20:38:50.270Z,2.35
2017-06-04T20:41:18.781Z,2.00
2017-06-04T20:43:46.850Z,2.10
2017-06-04T20:46:14.934Z,1.95
2017-06-04T20:48:43.007Z,2.20
2017-06-04T20:51:11.062Z,2.40
2017-06-04T20:53:39.679Z,2.67
2017-06-04T20:56:10.329Z,1.90
2017-06-04T20:58:39.174Z,2.33
2017-06-04T21:01:07.270Z,2.22
2017-06-04T21:03:35.366Z,2.30
2017-06-04T21:06:04.182Z,2.03
2017-06-04T21:08:32.234Z,2.72
2017-06-04T21:11:00.310Z,2.42
2017-06-04T21:13:28.370Z,2.28
2017-06-04T21:15:57.205Z,2.30
2017-06-04T21:18:25.295Z,2.58
2017-06-04T21:20:53.386Z,2.45
2017-06-04T21:23:23.339Z,2.53
2017-06-04T21:25:51.400Z,3.22
2017-06-04T21:28:19.466Z,3.12
2017-06-04T21:30:47.645Z,3.75
2017-06-04T21:33:15.716Z,2.55
2017-06-04T21:35:43.814Z,3.50
2017-06-04T21:38:11.895Z,3.08
2017-06-04T21:40:39.978Z,3.35
2017-06-04T21:43:08.080Z,2.55
2017-06-04T21:45:36.121Z,3.15
2017-06-04T21:48:04.206Z,3.22
2017-06-04T21:50:35.665Z,2.67
2017-06-04T21:53:03.747Z,2.83
2017-06-04T21:55:31.822Z,2.60
2017-06-04T21:57:59.883Z,2.08
2017-06-04T22:00:27.967Z,2.22
2017-06-04T22:02:56.058Z,2.45
2017-06-04T22:05:24.957Z,2.20
2017-06-04T22:07:53.878Z,2.60
2017-06-04T22:10:21.954Z,2.10
2017-06-04T22:12:50.044Z,2.15
2017-06-04T22:15:18.086Z,2.40
2017-06-04T22:17:46.167Z,3.00
2017-06-04T22:20:14.222Z,2.20
2017-06-04T22:22:42.298Z,2.60
2017-06-04T22:25:10.392Z,2.25
2017-06-04T22:27:38.490Z,2.40
2017-06-04T22:30:06.566Z,2.28
2017-06-04T22:32:34.683Z,2.17
2017-06-04T22:35:02.747Z,2.40
2017-06-04T22:37:30.794Z,2.30
2017-06-04T22:42:27.175Z,2.40
2017-06-04T22:47:23.533Z,2.00
2017-06-04T22:54:46.734Z,2.70
2017-06-04T23:04:37.362Z,3.30
2017-06-04T23:09:33.710Z,2.80
2017-06-04T23:12:01.798Z,2.35
2017-06-04T23:14:29.853Z,1.98
2017-06-04T23:16:57.926Z,2.22
2017-06-04T23:19:26.006Z,2.37
2017-06-04T23:21:54.062Z,2.45
2017-06-04T23:24:22.195Z,2.10
2017-06-04T23:26:50.266Z,2.10
2017-06-04T23:29:18.316Z,2.70
2017-06-04T23:31:46.399Z,2.00
2017-06-04T23:34:14.475Z,2.40
2017-06-04T23:36:42.531Z,2.47
2017-06-04T23:39:10.611Z,2.85
2017-06-04T23:41:38.703Z,2.47
2017-06-04T23:44:06.758Z,1.98
2017-06-04T23:46:34.842Z,2.60
2017-06-04T23:49:02.898Z,2.37
2017-06-04T23:51:31.014Z,3.00
2017-06-04T23:53:59.866Z,2.58
2017-06-04T23:56:27.943Z,2.15
2017-06-04T23:58:56.038Z,3.00
